sensor_id;sensor_type;location;lat;lon;timestamp;P1;durP1;ratioP1;P2;durP2;ratioP2
1370;SDS011;14306;49.942;11.570;2024-02-28T00:01:15;30.55;;;15.98;;
1370;SDS011;14306;49.942;11.570;2024-02-28T00:02:49;33.70;;;15.18;;
1370;SDS011;14306;49.942;11.570;2024-02-28T00:04:22;34.50;;;15.13;;
1370;SDS011;14306;49.942;11.570;2024-02-28T00:05:57;27.60;;;15.75;;
1370;SDS011;14306;49.942;11.570;2024-02-28T00:07:30;32.50;;;16.45;;
1370;SDS011;14306;49.942;11.570;2024-02-28T00:09:04;29.40;;;15.65;;
1370;SDS011;14306;49.942;11.570;2024-02-28T00:10:38;27.95;;;14.98;;
1370;SDS011;14306;49.942;11.570;2024-02-28T00:12:12;27.00;;;14.63;;
1370;SDS011;14306;49.942;11.570;2024-02-28T00:13:49;23.70;;;13.43;;
1370;SDS011;14306;49.942;11.570;2024-02-28T00:15:23;25.60;;;14.20;;
1370;SDS011;14306;49.942;11.570;2024-02-28T00:16:56;31.27;;;15.13;;
1370;SDS011;14306;49.942;11.570;2024-02-28T00:18:30;21.67;;;13.70;;
1370;SDS011;14306;49.942;11.570;2024-02-28T00:20:04;25.02;;;14.43;;
1370;SDS011;14306;49.942;11.570;2024-02-28T00:21:39;30.75;;;14.70;;
1370;SDS011;14306;49.942;11.570;2024-02-28T00:23:13;26.35;;;15.10;;
1370;SDS011;14306;49.942;11.570;2024-02-28T00:24:47;27.17;;;14.30;;
1370;SDS011;14306;49.942;11.570;2024-02-28T00:26:20;29.33;;;13.27;;
1370;SDS011;14306;49.942;11.570;2024-02-28T00:27:54;29.17;;;14.18;;
1370;SDS011;14306;49.942;11.570;2024-02-28T00:29:29;27.23;;;13.30;;
1370;SDS011;14306;49.942;11.570;2024-02-28T00:31:03;22.17;;;13.23;;
1370;SDS011;14306;49.942;11.570;2024-02-28T00:32:36;25.30;;;13.57;;
1370;SDS011;14306;49.942;11.570;2024-02-28T00:34:11;25.30;;;13.27;;
1370;SDS011;14306;49.942;11.570;2024-02-28T00:35:43;22.67;;;12.95;;
1370;SDS011;14306;49.942;11.570;2024-02-28T00:37:17;23.20;;;12.57;;
1370;SDS011;14306;49.942;11.570;2024-02-28T00:38:51;27.50;;;14.63;;
1370;SDS011;14306;49.942;11.570;2024-02-28T00:40:25;31.92;;;14.35;;
1370;SDS011;14306;49.942;11.570;2024-02-28T00:41:58;23.95;;;12.45;;
1370;SDS011;14306;49.942;11.570;2024-02-28T00:43:32;30.40;;;12.95;;
1370;SDS011;14306;49.942;11.570;2024-02-28T00:45:08;26.70;;;13.73;;
1370;SDS011;14306;49.942;11.570;2024-02-28T00:46:43;23.10;;;12.82;;
1370;SDS011;14306;49.942;11.570;2024-02-28T00:48:16;26.67;;;14.40;;
1370;SDS011;14306;49.942;11.570;2024-02-28T00:49:50;22.73;;;12.45;;
1370;SDS011;14306;49.942;11.570;2024-02-28T00:51:24;28.13;;;13.00;;
1370;SDS011;14306;49.942;11.570;2024-02-28T00:52:58;27.85;;;14.52;;
1370;SDS011;14306;49.942;11.570;2024-02-28T00:54:31;28.35;;;12.25;;
1370;SDS011;14306;49.942;11.570;2024-02-28T00:56:05;22.77;;;12.02;;
1370;SDS011;14306;49.942;11.570;2024-02-28T00:57:39;23.70;;;12.50;;
1370;SDS011;14306;49.942;11.570;2024-02-28T00:59:13;25.38;;;12.32;;
1370;SDS011;14306;49.942;11.570;2024-02-28T01:00:48;23.90;;;12.82;;
1370;SDS011;14306;49.942;11.570;2024-02-28T01:02:22;22.73;;;12.10;;
1370;SDS011;14306;49.942;11.570;2024-02-28T01:03:55;19.52;;;10.65;;
1370;SDS011;14306;49.942;11.570;2024-02-28T01:05:29;23.77;;;10.85;;
1370;SDS011;14306;49.942;11.570;2024-02-28T01:07:03;21.40;;;11.23;;
1370;SDS011;14306;49.942;11.570;2024-02-28T01:08:36;22.65;;;10.02;;
1370;SDS011;14306;49.942;11.570;2024-02-28T01:10:11;25.63;;;11.55;;
1370;SDS011;14306;49.942;11.570;2024-02-28T01:11:44;21.02;;;10.32;;
1370;SDS011;14306;49.942;11.570;2024-02-28T01:13:18;23.75;;;11.40;;
1370;SDS011;14306;49.942;11.570;2024-02-28T01:14:51;26.23;;;10.32;;
1370;SDS011;14306;49.942;11.570;2024-02-28T01:16:26;15.85;;;10.00;;
1370;SDS011;14306;49.942;11.570;2024-02-28T01:18:00;26.58;;;11.68;;
1370;SDS011;14306;49.942;11.570;2024-02-28T01:19:34;20.58;;;9.75;;
1370;SDS011;14306;49.942;11.570;2024-02-28T01:21:07;19.65;;;9.35;;
1370;SDS011;14306;49.942;11.570;2024-02-28T01:22:41;24.33;;;11.23;;
1370;SDS011;14306;49.942;11.570;2024-02-28T01:24:15;18.85;;;10.25;;
1370;SDS011;14306;49.942;11.570;2024-02-28T01:25:48;20.10;;;9.82;;
1370;SDS011;14306;49.942;11.570;2024-02-28T01:27:22;18.85;;;10.73;;
1370;SDS011;14306;49.942;11.570;2024-02-28T01:28:56;19.30;;;9.20;;
1370;SDS011;14306;49.942;11.570;2024-02-28T01:30:29;20.50;;;9.65;;
1370;SDS011;14306;49.942;11.570;2024-02-28T01:32:05;17.67;;;8.73;;
1370;SDS011;14306;49.942;11.570;2024-02-28T01:33:38;22.65;;;10.15;;
1370;SDS011;14306;49.942;11.570;2024-02-28T01:35:15;18.08;;;9.57;;
1370;SDS011;14306;49.942;11.570;2024-02-28T01:36:48;17.58;;;10.77;;
1370;SDS011;14306;49.942;11.570;2024-02-28T01:38:22;19.80;;;9.73;;
1370;SDS011;14306;49.942;11.570;2024-02-28T01:39:55;16.65;;;9.48;;
1370;SDS011;14306;49.942;11.570;2024-02-28T01:41:29;16.85;;;8.88;;
1370;SDS011;14306;49.942;11.570;2024-02-28T01:43:03;23.75;;;11.45;;
1370;SDS011;14306;49.942;11.570;2024-02-28T01:44:38;16.77;;;9.40;;
1370;SDS011;14306;49.942;11.570;2024-02-28T01:46:20;14.30;;;8.40;;
1370;SDS011;14306;49.942;11.570;2024-02-28T01:47:58;16.77;;;9.57;;
1370;SDS011;14306;49.942;11.570;2024-02-28T01:49:31;18.10;;;8.93;;
1370;SDS011;14306;49.942;11.570;2024-02-28T01:51:06;16.17;;;8.95;;
1370;SDS011;14306;49.942;11.570;2024-02-28T01:52:39;19.65;;;9.55;;
1370;SDS011;14306;49.942;11.570;2024-02-28T01:54:15;16.15;;;8.95;;
1370;SDS011;14306;49.942;11.570;2024-02-28T01:55:51;21.83;;;9.18;;
1370;SDS011;14306;49.942;11.570;2024-02-28T01:57:25;18.35;;;9.57;;
1370;SDS011;14306;49.942;11.570;2024-02-28T01:58:59;17.33;;;8.55;;
1370;SDS011;14306;49.942;11.570;2024-02-28T02:00:38;22.08;;;9.15;;
1370;SDS011;14306;49.942;11.570;2024-02-28T02:02:13;18.27;;;9.70;;
1370;SDS011;14306;49.942;11.570;2024-02-28T02:03:48;15.65;;;8.30;;
1370;SDS011;14306;49.942;11.570;2024-02-28T02:05:22;22.95;;;9.65;;
1370;SDS011;14306;49.942;11.570;2024-02-28T02:06:55;18.40;;;10.25;;
1370;SDS011;14306;49.942;11.570;2024-02-28T02:08:31;18.67;;;10.40;;
1370;SDS011;14306;49.942;11.570;2024-02-28T02:10:06;16.00;;;9.05;;
1370;SDS011;14306;49.942;11.570;2024-02-28T02:11:44;16.00;;;9.05;;
1370;SDS011;14306;49.942;11.570;2024-02-28T02:13:18;18.75;;;9.80;;
1370;SDS011;14306;49.942;11.570;2024-02-28T02:14:52;22.25;;;10.60;;
1370;SDS011;14306;49.942;11.570;2024-02-28T02:16:25;18.23;;;9.63;;
1370;SDS011;14306;49.942;11.570;2024-02-28T02:17:59;18.67;;;10.20;;
1370;SDS011;14306;49.942;11.570;2024-02-28T02:19:34;17.42;;;9.00;;
1370;SDS011;14306;49.942;11.570;2024-02-28T02:21:08;20.75;;;9.32;;
1370;SDS011;14306;49.942;11.570;2024-02-28T02:22:45;19.05;;;9.68;;
1370;SDS011;14306;49.942;11.570;2024-02-28T02:24:22;11.93;;;7.90;;
1370;SDS011;14306;49.942;11.570;2024-02-28T02:25:55;24.10;;;10.35;;
1370;SDS011;14306;49.942;11.570;2024-02-28T02:27:30;20.35;;;10.90;;
1370;SDS011;14306;49.942;11.570;2024-02-28T02:29:03;21.45;;;10.43;;
1370;SDS011;14306;49.942;11.570;2024-02-28T02:30:37;19.55;;;10.55;;
1370;SDS011;14306;49.942;11.570;2024-02-28T02:32:12;21.17;;;10.90;;
1370;SDS011;14306;49.942;11.570;2024-02-28T02:33:46;21.10;;;11.55;;
1370;SDS011;14306;49.942;11.570;2024-02-28T02:35:19;14.75;;;9.40;;
1370;SDS011;14306;49.942;11.570;2024-02-28T02:36:53;16.80;;;8.25;;
1370;SDS011;14306;49.942;11.570;2024-02-28T02:38:27;17.40;;;9.20;;
1370;SDS011;14306;49.942;11.570;2024-02-28T02:40:01;14.55;;;8.55;;
1370;SDS011;14306;49.942;11.570;2024-02-28T02:41:35;15.90;;;7.90;;
1370;SDS011;14306;49.942;11.570;2024-02-28T02:43:08;15.40;;;8.32;;
1370;SDS011;14306;49.942;11.570;2024-02-28T02:44:42;19.42;;;9.23;;
1370;SDS011;14306;49.942;11.570;2024-02-28T02:46:17;18.63;;;8.55;;
1370;SDS011;14306;49.942;11.570;2024-02-28T02:47:50;17.40;;;8.73;;
1370;SDS011;14306;49.942;11.570;2024-02-28T02:49:24;14.75;;;7.30;;
1370;SDS011;14306;49.942;11.570;2024-02-28T02:50:57;16.00;;;7.50;;
1370;SDS011;14306;49.942;11.570;2024-02-28T02:52:31;15.45;;;7.95;;
1370;SDS011;14306;49.942;11.570;2024-02-28T02:54:06;13.77;;;7.65;;
1370;SDS011;14306;49.942;11.570;2024-02-28T02:55:40;13.93;;;7.97;;
1370;SDS011;14306;49.942;11.570;2024-02-28T02:57:13;14.60;;;7.20;;
1370;SDS011;14306;49.942;11.570;2024-02-28T02:58:47;13.48;;;6.80;;
1370;SDS011;14306;49.942;11.570;2024-02-28T03:00:21;14.38;;;8.05;;
1370;SDS011;14306;49.942;11.570;2024-02-28T03:01:55;14.43;;;7.82;;
1370;SDS011;14306;49.942;11.570;2024-02-28T03:03:29;14.50;;;7.57;;
1370;SDS011;14306;49.942;11.570;2024-02-28T03:05:03;10.88;;;7.38;;
1370;SDS011;14306;49.942;11.570;2024-02-28T03:06:38;13.52;;;7.15;;
1370;SDS011;14306;49.942;11.570;2024-02-28T03:08:11;13.57;;;7.50;;
1370;SDS011;14306;49.942;11.570;2024-02-28T03:09:46;12.38;;;7.57;;
1370;SDS011;14306;49.942;11.570;2024-02-28T03:11:19;14.00;;;7.72;;
1370;SDS011;14306;49.942;11.570;2024-02-28T03:12:54;11.95;;;6.57;;
1370;SDS011;14306;49.942;11.570;2024-02-28T03:14:27;11.55;;;7.40;;
1370;SDS011;14306;49.942;11.570;2024-02-28T03:16:03;15.82;;;8.00;;
1370;SDS011;14306;49.942;11.570;2024-02-28T03:17:37;14.18;;;7.53;;
1370;SDS011;14306;49.942;11.570;2024-02-28T03:19:10;16.02;;;7.50;;
1370;SDS011;14306;49.942;11.570;2024-02-28T03:20:45;16.55;;;7.85;;
1370;SDS011;14306;49.942;11.570;2024-02-28T03:22:18;15.05;;;8.50;;
1370;SDS011;14306;49.942;11.570;2024-02-28T03:23:52;19.85;;;9.40;;
1370;SDS011;14306;49.942;11.570;2024-02-28T03:25:26;15.30;;;7.88;;
1370;SDS011;14306;49.942;11.570;2024-02-28T03:27:01;14.18;;;7.75;;
1370;SDS011;14306;49.942;11.570;2024-02-28T03:28:35;18.00;;;8.45;;
1370;SDS011;14306;49.942;11.570;2024-02-28T03:30:09;15.45;;;8.40;;
1370;SDS011;14306;49.942;11.570;2024-02-28T03:31:42;12.40;;;7.78;;
1370;SDS011;14306;49.942;11.570;2024-02-28T03:33:17;14.57;;;7.50;;
1370;SDS011;14306;49.942;11.570;2024-02-28T03:34:51;16.65;;;8.77;;
1370;SDS011;14306;49.942;11.570;2024-02-28T03:36:25;13.23;;;7.22;;
1370;SDS011;14306;49.942;11.570;2024-02-28T03:37:59;15.85;;;9.20;;
1370;SDS011;14306;49.942;11.570;2024-02-28T03:39:33;17.67;;;8.57;;
1370;SDS011;14306;49.942;11.570;2024-02-28T03:41:08;13.18;;;7.95;;
1370;SDS011;14306;49.942;11.570;2024-02-28T03:42:41;15.77;;;9.02;;
1370;SDS011;14306;49.942;11.570;2024-02-28T03:44:15;17.20;;;7.93;;
1370;SDS011;14306;49.942;11.570;2024-02-28T03:45:49;16.20;;;8.38;;
1370;SDS011;14306;49.942;11.570;2024-02-28T03:47:23;16.55;;;8.20;;
1370;SDS011;14306;49.942;11.570;2024-02-28T03:48:56;20.17;;;9.63;;
1370;SDS011;14306;49.942;11.570;2024-02-28T03:50:32;20.45;;;9.55;;
1370;SDS011;14306;49.942;11.570;2024-02-28T03:52:05;17.92;;;8.70;;
1370;SDS011;14306;49.942;11.570;2024-02-28T03:53:40;17.48;;;9.60;;
1370;SDS011;14306;49.942;11.570;2024-02-28T03:55:15;21.75;;;9.45;;
1370;SDS011;14306;49.942;11.570;2024-02-28T03:56:49;20.60;;;10.23;;
1370;SDS011;14306;49.942;11.570;2024-02-28T03:58:24;18.27;;;10.65;;
1370;SDS011;14306;49.942;11.570;2024-02-28T03:59:58;23.27;;;9.88;;
1370;SDS011;14306;49.942;11.570;2024-02-28T04:01:34;20.58;;;8.95;;
1370;SDS011;14306;49.942;11.570;2024-02-28T04:03:08;20.10;;;9.50;;
1370;SDS011;14306;49.942;11.570;2024-02-28T04:04:43;20.05;;;10.38;;
1370;SDS011;14306;49.942;11.570;2024-02-28T04:06:16;19.88;;;10.55;;
1370;SDS011;14306;49.942;11.570;2024-02-28T04:07:50;18.40;;;8.68;;
1370;SDS011;14306;49.942;11.570;2024-02-28T04:09:23;19.17;;;9.57;;
1370;SDS011;14306;49.942;11.570;2024-02-28T04:10:58;21.73;;;10.00;;
1370;SDS011;14306;49.942;11.570;2024-02-28T04:12:33;20.05;;;9.95;;
1370;SDS011;14306;49.942;11.570;2024-02-28T04:14:07;18.27;;;10.07;;
1370;SDS011;14306;49.942;11.570;2024-02-28T04:15:41;22.45;;;9.43;;
1370;SDS011;14306;49.942;11.570;2024-02-28T04:17:15;17.48;;;9.30;;
1370;SDS011;14306;49.942;11.570;2024-02-28T04:18:48;20.77;;;9.98;;
1370;SDS011;14306;49.942;11.570;2024-02-28T04:20:23;15.48;;;10.23;;
1370;SDS011;14306;49.942;11.570;2024-02-28T04:21:56;22.75;;;10.82;;
1370;SDS011;14306;49.942;11.570;2024-02-28T04:23:31;13.68;;;8.80;;
1370;SDS011;14306;49.942;11.570;2024-02-28T04:25:05;19.20;;;9.80;;
1370;SDS011;14306;49.942;11.570;2024-02-28T04:26:41;20.52;;;10.05;;
1370;SDS011;14306;49.942;11.570;2024-02-28T04:28:16;18.42;;;9.48;;
1370;SDS011;14306;49.942;11.570;2024-02-28T04:29:50;19.00;;;10.38;;
1370;SDS011;14306;49.942;11.570;2024-02-28T04:31:24;22.42;;;11.32;;
1370;SDS011;14306;49.942;11.570;2024-02-28T04:32:57;19.27;;;9.80;;
1370;SDS011;14306;49.942;11.570;2024-02-28T04:34:32;18.83;;;10.27;;
1370;SDS011;14306;49.942;11.570;2024-02-28T04:36:05;23.50;;;12.07;;
1370;SDS011;14306;49.942;11.570;2024-02-28T04:37:40;19.13;;;10.18;;
1370;SDS011;14306;49.942;11.570;2024-02-28T04:39:13;20.00;;;9.30;;
1370;SDS011;14306;49.942;11.570;2024-02-28T04:40:47;22.40;;;10.77;;
1370;SDS011;14306;49.942;11.570;2024-02-28T04:42:22;18.00;;;9.25;;
1370;SDS011;14306;49.942;11.570;2024-02-28T04:43:57;21.98;;;10.63;;
1370;SDS011;14306;49.942;11.570;2024-02-28T04:45:31;21.98;;;9.38;;
1370;SDS011;14306;49.942;11.570;2024-02-28T04:47:05;22.95;;;10.80;;
1370;SDS011;14306;49.942;11.570;2024-02-28T04:48:39;18.30;;;9.50;;
1370;SDS011;14306;49.942;11.570;2024-02-28T04:50:14;19.98;;;10.63;;
1370;SDS011;14306;49.942;11.570;2024-02-28T04:51:48;24.77;;;10.70;;
1370;SDS011;14306;49.942;11.570;2024-02-28T04:53:22;19.98;;;9.57;;
1370;SDS011;14306;49.942;11.570;2024-02-28T04:54:55;18.67;;;9.63;;
1370;SDS011;14306;49.942;11.570;2024-02-28T04:56:30;23.10;;;11.20;;
1370;SDS011;14306;49.942;11.570;2024-02-28T04:58:03;18.45;;;9.10;;
1370;SDS011;14306;49.942;11.570;2024-02-28T04:59:39;19.65;;;9.70;;
1370;SDS011;14306;49.942;11.570;2024-02-28T05:01:15;21.45;;;10.68;;
1370;SDS011;14306;49.942;11.570;2024-02-28T05:02:53;24.88;;;10.80;;
1370;SDS011;14306;49.942;11.570;2024-02-28T05:04:26;18.98;;;9.57;;
1370;SDS011;14306;49.942;11.570;2024-02-28T05:06:00;18.45;;;11.30;;
1370;SDS011;14306;49.942;11.570;2024-02-28T05:07:34;26.27;;;11.32;;
1370;SDS011;14306;49.942;11.570;2024-02-28T05:09:09;20.15;;;10.70;;
1370;SDS011;14306;49.942;11.570;2024-02-28T05:10:42;20.33;;;10.32;;
1370;SDS011;14306;49.942;11.570;2024-02-28T05:12:16;21.85;;;11.88;;
1370;SDS011;14306;49.942;11.570;2024-02-28T05:13:50;21.83;;;10.02;;
1370;SDS011;14306;49.942;11.570;2024-02-28T05:15:25;20.15;;;10.50;;
1370;SDS011;14306;49.942;11.570;2024-02-28T05:16:58;24.75;;;12.88;;
1370;SDS011;14306;49.942;11.570;2024-02-28T05:18:32;22.60;;;11.05;;
1370;SDS011;14306;49.942;11.570;2024-02-28T05:20:07;25.38;;;10.25;;
1370;SDS011;14306;49.942;11.570;2024-02-28T05:21:41;19.50;;;10.05;;
1370;SDS011;14306;49.942;11.570;2024-02-28T05:23:15;23.05;;;10.88;;
1370;SDS011;14306;49.942;11.570;2024-02-28T05:24:49;21.58;;;11.57;;
1370;SDS011;14306;49.942;11.570;2024-02-28T05:26:23;27.63;;;12.48;;
1370;SDS011;14306;49.942;11.570;2024-02-28T05:27:57;31.85;;;10.68;;
1370;SDS011;14306;49.942;11.570;2024-02-28T05:29:31;25.23;;;11.88;;
1370;SDS011;14306;49.942;11.570;2024-02-28T05:31:20;20.48;;;11.32;;
1370;SDS011;14306;49.942;11.570;2024-02-28T05:32:55;29.05;;;14.05;;
1370;SDS011;14306;49.942;11.570;2024-02-28T05:34:30;28.95;;;13.35;;
1370;SDS011;14306;49.942;11.570;2024-02-28T05:36:03;22.88;;;11.32;;
1370;SDS011;14306;49.942;11.570;2024-02-28T05:37:39;24.05;;;11.88;;
1370;SDS011;14306;49.942;11.570;2024-02-28T05:39:13;21.73;;;11.48;;
1370;SDS011;14306;49.942;11.570;2024-02-28T05:40:47;25.67;;;12.02;;
1370;SDS011;14306;49.942;11.570;2024-02-28T05:42:20;29.63;;;12.82;;
1370;SDS011;14306;49.942;11.570;2024-02-28T05:43:55;19.40;;;11.07;;
1370;SDS011;14306;49.942;11.570;2024-02-28T05:45:28;25.80;;;12.23;;
1370;SDS011;14306;49.942;11.570;2024-02-28T05:47:04;25.10;;;12.43;;
1370;SDS011;14306;49.942;11.570;2024-02-28T05:48:37;23.85;;;12.15;;
1370;SDS011;14306;49.942;11.570;2024-02-28T05:50:11;38.83;;;12.98;;
1370;SDS011;14306;49.942;11.570;2024-02-28T05:51:45;27.42;;;13.25;;
1370;SDS011;14306;49.942;11.570;2024-02-28T05:53:20;26.75;;;12.52;;
1370;SDS011;14306;49.942;11.570;2024-02-28T05:54:53;24.30;;;14.02;;
1370;SDS011;14306;49.942;11.570;2024-02-28T05:56:27;28.20;;;13.60;;
1370;SDS011;14306;49.942;11.570;2024-02-28T05:58:03;29.92;;;13.80;;
1370;SDS011;14306;49.942;11.570;2024-02-28T05:59:37;27.85;;;13.10;;
1370;SDS011;14306;49.942;11.570;2024-02-28T06:01:12;27.33;;;15.02;;
1370;SDS011;14306;49.942;11.570;2024-02-28T06:02:49;26.05;;;13.90;;
1370;SDS011;14306;49.942;11.570;2024-02-28T06:04:24;24.42;;;12.23;;
1370;SDS011;14306;49.942;11.570;2024-02-28T06:05:57;33.42;;;13.77;;
1370;SDS011;14306;49.942;11.570;2024-02-28T06:07:31;25.50;;;13.18;;
1370;SDS011;14306;49.942;11.570;2024-02-28T06:09:05;30.95;;;14.38;;
1370;SDS011;14306;49.942;11.570;2024-02-28T06:10:40;29.85;;;13.63;;
1370;SDS011;14306;49.942;11.570;2024-02-28T06:12:15;30.60;;;14.82;;
1370;SDS011;14306;49.942;11.570;2024-02-28T06:13:50;34.72;;;14.85;;
1370;SDS011;14306;49.942;11.570;2024-02-28T06:15:24;28.67;;;15.95;;
1370;SDS011;14306;49.942;11.570;2024-02-28T06:16:59;28.77;;;14.73;;
1370;SDS011;14306;49.942;11.570;2024-02-28T06:18:34;30.38;;;13.65;;
1370;SDS011;14306;49.942;11.570;2024-02-28T06:20:08;34.97;;;15.43;;
1370;SDS011;14306;49.942;11.570;2024-02-28T06:21:42;30.27;;;13.98;;
1370;SDS011;14306;49.942;11.570;2024-02-28T06:23:18;27.80;;;13.48;;
1370;SDS011;14306;49.942;11.570;2024-02-28T06:25:00;25.42;;;13.50;;
1370;SDS011;14306;49.942;11.570;2024-02-28T06:26:35;33.83;;;14.70;;
1370;SDS011;14306;49.942;11.570;2024-02-28T06:28:09;30.70;;;14.38;;
1370;SDS011;14306;49.942;11.570;2024-02-28T06:29:43;32.13;;;14.45;;
1370;SDS011;14306;49.942;11.570;2024-02-28T06:31:18;32.33;;;15.57;;
1370;SDS011;14306;49.942;11.570;2024-02-28T06:32:52;36.80;;;15.25;;
1370;SDS011;14306;49.942;11.570;2024-02-28T06:34:28;30.77;;;14.10;;
1370;SDS011;14306;49.942;11.570;2024-02-28T06:36:04;30.65;;;14.35;;
1370;SDS011;14306;49.942;11.570;2024-02-28T06:37:37;35.03;;;15.95;;
1370;SDS011;14306;49.942;11.570;2024-02-28T06:39:12;34.95;;;14.57;;
1370;SDS011;14306;49.942;11.570;2024-02-28T06:40:48;32.03;;;13.10;;
1370;SDS011;14306;49.942;11.570;2024-02-28T06:42:22;35.47;;;14.30;;
1370;SDS011;14306;49.942;11.570;2024-02-28T06:43:57;27.60;;;13.98;;
1370;SDS011;14306;49.942;11.570;2024-02-28T06:45:31;30.13;;;13.35;;
1370;SDS011;14306;49.942;11.570;2024-02-28T06:47:05;26.38;;;13.80;;
1370;SDS011;14306;49.942;11.570;2024-02-28T06:48:40;31.52;;;14.80;;
1370;SDS011;14306;49.942;11.570;2024-02-28T06:50:16;30.92;;;14.13;;
1370;SDS011;14306;49.942;11.570;2024-02-28T06:51:51;27.83;;;13.25;;
1370;SDS011;14306;49.942;11.570;2024-02-28T06:53:25;28.77;;;14.63;;
1370;SDS011;14306;49.942;11.570;2024-02-28T06:55:00;25.95;;;13.57;;
1370;SDS011;14306;49.942;11.570;2024-02-28T06:56:36;27.30;;;13.20;;
1370;SDS011;14306;49.942;11.570;2024-02-28T06:58:11;29.00;;;14.25;;
1370;SDS011;14306;49.942;11.570;2024-02-28T06:59:44;32.45;;;14.65;;
1370;SDS011;14306;49.942;11.570;2024-02-28T07:01:20;26.92;;;13.40;;
1370;SDS011;14306;49.942;11.570;2024-02-28T07:02:53;27.17;;;13.10;;
1370;SDS011;14306;49.942;11.570;2024-02-28T07:04:28;32.28;;;14.75;;
1370;SDS011;14306;49.942;11.570;2024-02-28T07:06:03;24.80;;;12.25;;
1370;SDS011;14306;49.942;11.570;2024-02-28T07:07:38;29.38;;;13.50;;
1370;SDS011;14306;49.942;11.570;2024-02-28T07:09:11;27.45;;;13.65;;
1370;SDS011;14306;49.942;11.570;2024-02-28T07:10:47;27.00;;;13.02;;
1370;SDS011;14306;49.942;11.570;2024-02-28T07:12:26;28.40;;;12.25;;
1370;SDS011;14306;49.942;11.570;2024-02-28T07:14:00;27.35;;;12.43;;
1370;SDS011;14306;49.942;11.570;2024-02-28T07:15:35;27.60;;;12.90;;
1370;SDS011;14306;49.942;11.570;2024-02-28T07:17:09;22.90;;;12.52;;
1370;SDS011;14306;49.942;11.570;2024-02-28T07:18:43;23.80;;;12.50;;
1370;SDS011;14306;49.942;11.570;2024-02-28T07:20:17;21.48;;;12.52;;
1370;SDS011;14306;49.942;11.570;2024-02-28T07:21:53;22.73;;;12.70;;
1370;SDS011;14306;49.942;11.570;2024-02-28T07:23:26;21.70;;;12.45;;
1370;SDS011;14306;49.942;11.570;2024-02-28T07:25:01;32.78;;;13.88;;
1370;SDS011;14306;49.942;11.570;2024-02-28T07:26:35;22.10;;;12.23;;
1370;SDS011;14306;49.942;11.570;2024-02-28T07:28:10;21.90;;;11.07;;
1370;SDS011;14306;49.942;11.570;2024-02-28T07:29:43;28.05;;;12.13;;
1370;SDS011;14306;49.942;11.570;2024-02-28T07:31:18;23.75;;;12.85;;
1370;SDS011;14306;49.942;11.570;2024-02-28T07:32:55;23.02;;;12.43;;
1370;SDS011;14306;49.942;11.570;2024-02-28T07:34:29;40.00;;;13.48;;
1370;SDS011;14306;49.942;11.570;2024-02-28T07:36:03;22.13;;;12.27;;
1370;SDS011;14306;49.942;11.570;2024-02-28T07:37:39;29.92;;;11.80;;
1370;SDS011;14306;49.942;11.570;2024-02-28T07:39:13;24.63;;;12.57;;
1370;SDS011;14306;49.942;11.570;2024-02-28T07:40:48;24.00;;;12.90;;
1370;SDS011;14306;49.942;11.570;2024-02-28T07:42:22;27.30;;;12.30;;
1370;SDS011;14306;49.942;11.570;2024-02-28T07:43:55;24.70;;;12.95;;
1370;SDS011;14306;49.942;11.570;2024-02-28T07:45:30;27.00;;;12.55;;
1370;SDS011;14306;49.942;11.570;2024-02-28T07:47:06;26.02;;;12.77;;
1370;SDS011;14306;49.942;11.570;2024-02-28T07:48:39;22.30;;;11.00;;
1370;SDS011;14306;49.942;11.570;2024-02-28T07:50:14;27.33;;;14.32;;
1370;SDS011;14306;49.942;11.570;2024-02-28T07:51:50;25.63;;;13.73;;
1370;SDS011;14306;49.942;11.570;2024-02-28T07:53:25;23.83;;;12.68;;
1370;SDS011;14306;49.942;11.570;2024-02-28T07:54:59;27.15;;;12.63;;
1370;SDS011;14306;49.942;11.570;2024-02-28T07:56:33;25.33;;;13.75;;
1370;SDS011;14306;49.942;11.570;2024-02-28T07:58:08;24.73;;;13.40;;
1370;SDS011;14306;49.942;11.570;2024-02-28T07:59:42;22.80;;;12.18;;
1370;SDS011;14306;49.942;11.570;2024-02-28T08:01:16;26.65;;;12.98;;
1370;SDS011;14306;49.942;11.570;2024-02-28T08:02:50;23.65;;;12.18;;
1370;SDS011;14306;49.942;11.570;2024-02-28T08:04:25;23.48;;;12.13;;
1370;SDS011;14306;49.942;11.570;2024-02-28T08:06:00;30.50;;;14.25;;
1370;SDS011;14306;49.942;11.570;2024-02-28T08:07:34;23.55;;;12.55;;
1370;SDS011;14306;49.942;11.570;2024-02-28T08:09:09;26.60;;;11.82;;
1370;SDS011;14306;49.942;11.570;2024-02-28T08:10:45;24.80;;;12.70;;
1370;SDS011;14306;49.942;11.570;2024-02-28T08:12:21;23.73;;;12.07;;
1370;SDS011;14306;49.942;11.570;2024-02-28T08:13:55;27.50;;;11.60;;
1370;SDS011;14306;49.942;11.570;2024-02-28T08:15:29;21.67;;;11.02;;
1370;SDS011;14306;49.942;11.570;2024-02-28T08:17:04;23.48;;;12.55;;
1370;SDS011;14306;49.942;11.570;2024-02-28T08:18:39;23.73;;;12.15;;
1370;SDS011;14306;49.942;11.570;2024-02-28T08:20:12;22.17;;;11.20;;
1370;SDS011;14306;49.942;11.570;2024-02-28T08:21:47;22.50;;;11.65;;
1370;SDS011;14306;49.942;11.570;2024-02-28T08:23:23;22.80;;;12.00;;
1370;SDS011;14306;49.942;11.570;2024-02-28T08:25:00;21.00;;;12.35;;
1370;SDS011;14306;49.942;11.570;2024-02-28T08:26:33;21.10;;;11.60;;
1370;SDS011;14306;49.942;11.570;2024-02-28T08:28:08;19.30;;;11.48;;
1370;SDS011;14306;49.942;11.570;2024-02-28T08:29:42;21.88;;;11.40;;
1370;SDS011;14306;49.942;11.570;2024-02-28T08:31:17;23.95;;;13.00;;
1370;SDS011;14306;49.942;11.570;2024-02-28T08:32:51;18.73;;;11.27;;
1370;SDS011;14306;49.942;11.570;2024-02-28T08:34:25;22.35;;;10.70;;
1370;SDS011;14306;49.942;11.570;2024-02-28T08:35:59;22.52;;;10.88;;
1370;SDS011;14306;49.942;11.570;2024-02-28T08:37:33;24.88;;;11.23;;
1370;SDS011;14306;49.942;11.570;2024-02-28T08:39:06;21.95;;;11.70;;
1370;SDS011;14306;49.942;11.570;2024-02-28T08:40:45;27.55;;;12.45;;
1370;SDS011;14306;49.942;11.570;2024-02-28T08:42:18;19.42;;;11.90;;
1370;SDS011;14306;49.942;11.570;2024-02-28T08:43:53;22.27;;;11.95;;
1370;SDS011;14306;49.942;11.570;2024-02-28T08:45:26;26.00;;;10.68;;
1370;SDS011;14306;49.942;11.570;2024-02-28T08:47:01;20.55;;;11.75;;
1370;SDS011;14306;49.942;11.570;2024-02-28T08:48:36;18.52;;;10.80;;
1370;SDS011;14306;49.942;11.570;2024-02-28T08:50:10;20.73;;;11.80;;
1370;SDS011;14306;49.942;11.570;2024-02-28T08:51:44;22.67;;;11.23;;
1370;SDS011;14306;49.942;11.570;2024-02-28T08:53:21;15.52;;;10.40;;
1370;SDS011;14306;49.942;11.570;2024-02-28T08:54:56;20.05;;;10.55;;
1370;SDS011;14306;49.942;11.570;2024-02-28T08:56:31;22.45;;;11.40;;
1370;SDS011;14306;49.942;11.570;2024-02-28T08:58:08;19.75;;;10.25;;
1370;SDS011;14306;49.942;11.570;2024-02-28T08:59:41;23.50;;;11.32;;
1370;SDS011;14306;49.942;11.570;2024-02-28T09:01:16;17.85;;;10.52;;
1370;SDS011;14306;49.942;11.570;2024-02-28T09:02:50;21.92;;;11.13;;
1370;SDS011;14306;49.942;11.570;2024-02-28T09:04:24;20.67;;;10.35;;
1370;SDS011;14306;49.942;11.570;2024-02-28T09:05:59;16.55;;;10.48;;
1370;SDS011;14306;49.942;11.570;2024-02-28T09:07:34;23.05;;;11.52;;
1370;SDS011;14306;49.942;11.570;2024-02-28T09:09:08;17.83;;;10.50;;
1370;SDS011;14306;49.942;11.570;2024-02-28T09:10:42;17.05;;;9.50;;
1370;SDS011;14306;49.942;11.570;2024-02-28T09:12:17;15.32;;;9.13;;
1370;SDS011;14306;49.942;11.570;2024-02-28T09:13:52;18.10;;;9.05;;
1370;SDS011;14306;49.942;11.570;2024-02-28T09:15:25;14.25;;;8.75;;